Terminal Aerodrome Forecast
Issued by NWS New Orleans/Baton Rouge, LA

Home | Current Version | Previous Version | Text Only | Print | Product List | Glossary On
Versions: 1 2 3 4 5 6 7 8 9 10 11 12 13 14 15 16
000
FTUS44 KLIX 012322
TAFBTR
TAF
KBTR 012322Z 0200/0224 18008KT P6SM SCT050 BKN250
     FM020900 16005KT 4SM BR SCT007 BKN013
      TEMPO 0210/0213 2SM BR BKN007
     FM021400 16009KT P6SM BKN025
     FM021700 18014KT P6SM BKN045=

USA.gov is the U.S. government's official web portal to all federal, state and local government web resources and services.